Detalii statie ERDEI ROBERT [00001D0F]

Toti senzorii

Date Temperatura solului [C]Precipitatii [mm]Voltaj baterie [mV]Leaf Wetness [Min]HC Air temperature [C]HC Relative humidity [%]Punctul de roua [C]
medieminmaxsumaultimatimpmedieminmaxmediemediemin
2017-06-25 06:00:00 20.5 20.3 20.6 0 6776 16.81 15.84 17.7 0 0 0
2017-06-25 07:00:00 20.4 20.4 20.5 0 7000 19.48 17.97 21.15 0 0 0
2017-06-25 08:00:00 20.4 20.2 20.5 0 7158 23.39 21.61 25.84 0 0 0
2017-06-25 09:00:00 20.3 20.3 20.4 0 7148 26.34 25.21 28.01 0 0 0
2017-06-25 10:00:00 20.2 20.1 20.3 0 7148 27.22 26.33 27.93 0 0 0
2017-06-25 11:00:00 20.2 20.1 20.4 0 7148 28.28 27.21 29.8 0 0 0
2017-06-25 12:00:00 20.1 20.1 20.2 0 7138 29.94 29.01 30.77 0 0 0
2017-06-25 13:00:00 20.1 20 20.2 0 7138 29.74 28.94 31.17 0 0 0
2017-06-25 14:00:00 20.1 19.9 20.2 0 7148 28.36 26.19 29.41 0 0 0
2017-06-25 15:00:00 20.1 20.1 20.3 0 7138 29.13 28.09 30.55 0 0 0
2017-06-25 16:00:00 20 19.9 20.2 0 7088 29.01 28.63 29.54 0 0 0
2017-06-25 17:00:00 20.1 20 20.2 0 7138 29.38 28.88 29.78 0 0 0
2017-06-25 18:00:00 20.1 20.1 20.3 0 7040 27.54 26.35 28.82 0 0 0
2017-06-25 19:00:00 20.1 20.1 20.2 0 7000 28.47 27.77 29.2 0 0 0
2017-06-25 20:00:00 20.1 20.1 20.3 0 6816 25.84 24.73 27.92 0 0 0
2017-06-25 21:00:00 20.1 20.1 20.2 0 6786 24.49 23.47 25.24 0 0 0
2017-06-25 22:00:00 20.2 20.1 20.3 0 6786 22.25 21.8 23.17 0 0 0
2017-06-25 23:00:00 20.3 20.2 20.4 0 6776 22.41 22.11 22.58 0 0 0
2017-06-26 00:00:00 20.3 20.2 20.4 0.2 6776 22.46 21.99 23.52 0 0 0
2017-06-26 01:00:00 20.3 20.2 20.5 0 6756 20.71 20.11 22.31 0 0 0
2017-06-26 02:00:00 20.3 20.3 20.4 0 6748 19.68 19.37 20.06 0 0 0
2017-06-26 03:00:00 20.4 20.3 20.5 0 6748 19.35 19.13 19.7 0 0 0
2017-06-26 04:00:00 20.3 20.2 20.5 0 6738 19.17 18.88 19.36 0 0 0
2017-06-26 05:00:00 20.3 20.2 20.4 0 6728 18.39 18.24 18.71 0 0 0
2017-06-26 06:00:00 20.3 20.3 20.5 0 6748 18.45 18.29 18.66 0 0 0
2017-06-26 07:00:00 20.3 20.3 20.4 0 6904 19.16 18.68 20.03 0 0 0
2017-06-26 08:00:00 20.3 20.3 20.4 0 7030 20.59 20.3 21.25 0 0 0
2017-06-26 09:00:00 20.2 20.2 20.3 0 7148 22.03 20.66 23.74 0 0 0
2017-06-26 10:00:00 20.1 20.1 20.4 0 7148 24.61 23.83 25.4 0 0 0
2017-06-26 11:00:00 20.1 20.1 20.2 0 7148 25.42 24.25 26.87 0 0 0
2017-06-26 12:00:00 20.1 20.1 20.2 0 7148 26.88 25.99 28.23 0 0 0
2017-06-26 13:00:00 20.1 20 20.2 0 7148 26.92 25.79 28.88 0 0 0
2017-06-26 14:00:00 20.1 20 20.2 0 7148 27.86 26.64 29.45 0 0 0
2017-06-26 15:00:00 20.1 20.1 20.2 0 7088 27.9 26.94 29.3 0 0 0
2017-06-26 16:00:00 20.1 19.9 20.2 0 7138 27.77 26.82 28.67 0 0 0
2017-06-26 17:00:00 20.1 20.1 20.2 0 7030 28.46 28.06 28.99 0 0 0
2017-06-26 18:00:00 20.1 20.1 20.2 0 7138 27.78 26.75 28.88 0 0 0
2017-06-26 19:00:00 20.1 20.1 20.3 0 7138 26.55 25.13 27.84 0 0 0
2017-06-26 20:00:00 20.2 20.1 20.4 0 6864 24.94 24.81 25.09 0 0 0
2017-06-26 21:00:00 20.3 20.2 20.4 0 6816 22.89 20.95 24.62 0 0 0
2017-06-26 22:00:00 20.3 20.2 20.4 0 6786 19.44 18.63 20.68 0 0 0
2017-06-26 23:00:00 20.3 20.1 20.5 0 6776 18.32 17.98 18.74 0 0 0
2017-06-27 00:00:00 20.4 20.1 20.6 0 6766 18.59 17.94 19.12 0 0 0
2017-06-27 01:00:00 20.4 20.3 20.7 0 6756 17.66 17.3 18.19 0 0 0
2017-06-27 02:00:00 20.5 20.3 20.6 0 6748 17.27 17.02 17.37 0 0 0
2017-06-27 03:00:00 20.4 20.3 20.6 0 6748 16.74 16.37 17.31 0 0 0
2017-06-27 04:00:00 20.4 20.3 20.7 0 6738 16.47 16.08 16.87 0 0 0
2017-06-27 05:00:00 20.4 20.3 20.6 0 6728 15.93 15.66 16.14 0 0 0